Pride Of Canterbury — MPQZ6 — position and weather

sailwx.info

Track history (hours):
 
Tides and Currents Weather Stations Pressure Air Temp Water Temp Dewpoint Dewpoint Depression Visibility Wind Speed Wind Dir Waves Ship Positions

Pride Of Canterbury

Operator: P & O Ferries

Last reported at 2017-Jul-22 18:30 UTC. Time now 2017-Jul-22 18:32 UTC.
Position N 51°04' E 001°31'.

Length 180 m; draft 5.7 m.

Type: Passenger vessel. MMSI: 232001060.

Date/timePositionNaut miles runAvg speedWind from/ knotsBaromVisibWave heightAir tempDewpointWater temp
2017-Jul-22 18:30N 51°04' E 001°31'918.9
2017-Jul-22 18:00N 50°58' E 001°43'5 9.5
2017-Jul-22 17:30N 50°58' E 001°51'0 0.0
2017-Jul-22 17:00N 50°58' E 001°51'2 4.1
2017-Jul-22 16:30N 50°58' E 001°48'816.6
2017-Jul-22 16:00N 51°01' E 001°35'918.5
2017-Jul-22 15:31N 51°06' E 001°23'2 4.2
2017-Jul-22 14:57N 51°07' E 001°20'5 5.4
2017-Jul-22 14:00N 51°06' E 001°28'918.3
2017-Jul-22 13:30N 51°01' E 001°40'715.0
2017-Jul-22 13:01N 50°58' E 001°51'0 0.1
2017-Jul-22 12:29N 50°58' E 001°51'1 1.5
2017-Jul-22 12:00N 50°58' E 001°50'1018.9
2017-Jul-22 11:30N 51°01' E 001°36'918.8
2017-Jul-22 11:00N 51°06' E 001°23'2 1.8
2017-Jul-22 09:48N 51°07' E 001°20'310.7
2017-Jul-22 09:31N 51°07' E 001°25'714.1
2017-Jul-22 09:01N 51°05' E 001°36'714.5
2017-Jul-22 08:30N 50°59' E 001°43'5 9.2
2017-Jul-22 07:57N 50°58' E 001°51'0 0.0
2017-Jul-22 07:31N 50°58' E 001°51'3 5.1
2017-Jul-22 07:00N 50°58' E 001°47'917.3
2017-Jul-22 06:30N 51°01' E 001°34'918.1
2017-Jul-22 06:00N 51°06' E 001°22'2 0.9
2017-Jul-22 04:12N 51°07' E 001°20'210.4
2017-Jul-22 04:00N 51°07' E 001°23'917.1
2017-Jul-22 03:30N 51°03' E 001°35'816.7
2017-Jul-22 03:00N 50°58' E 001°46'3 6.2
2017-Jul-22 02:30N 50°58' E 001°51'0 0.0
2017-Jul-22 02:01N 50°58' E 001°51'0 0.0
2017-Jul-22 01:30N 50°58' E 001°51'510.1
2017-Jul-22 01:00N 50°58' E 001°43'918.3
2017-Jul-22 00:30N 51°03' E 001°31'816.2
2017-Jul-22 00:00N 51°07' E 001°20'0 0.3
2017-Jul-21 23:27N 51°07' E 001°20'0 0.3
2017-Jul-21 23:00N 51°07' E 001°20'815.6
2017-Jul-21 22:31N 51°04' E 001°31'917.3
2017-Jul-21 22:00N 50°59' E 001°43'510.6
2017-Jul-21 21:30N 50°58' E 001°51'0 0.0
2017-Jul-21 21:01N 50°58' E 001°51'2 4.7
2017-Jul-21 20:30N 50°58' E 001°47'1019.1
2017-Jul-21 20:00N 51°01' E 001°33'918.0
2017-Jul-21 19:30N 51°07' E 001°22'1 2.9
2017-Jul-21 19:00N 51°07' E 001°20'0 0.0
2017-Jul-21 18:29N 51°07' E 001°20'713.7
2017-Jul-21 18:00N 51°05' E 001°30'1019.2
2017-Jul-21 17:30N 50°59' E 001°42'611.6
2017-Jul-21 17:00N 50°58' E 001°51'0 0.0
2017-Jul-21 16:30N 50°58' E 001°51'2 3.5
2017-Jul-21 16:00N 50°58' E 001°48'816.4
2017-Jul-21 15:30N 51°01' E 001°36'918.4
2017-Jul-21 15:00N 51°06' E 001°24'3 5.3
2017-Jul-21 14:30N 51°07' E 001°20'0 0.0
2017-Jul-21 13:59N 51°07' E 001°20'613.0
2017-Jul-21 13:31N 51°05' E 001°29'918.5
2017-Jul-21 13:00N 50°60' E 001°41'612.7
2017-Jul-21 12:30N 50°58' E 001°51'0 0.0
2017-Jul-21 12:00N 50°58' E 001°51'1 2.3
2017-Jul-21 11:30N 50°58' E 001°49'918.0
2017-Jul-21 10:59N 51°01' E 001°35'918.6
2017-Jul-21 10:31N 51°06' E 001°23'2 2.0
2017-Jul-21 09:22N 51°07' E 001°20'513.9
2017-Jul-21 09:00N 51°06' E 001°27'918.2
2017-Jul-21 08:30N 51°01' E 001°40'714.8
2017-Jul-21 08:00N 50°58' E 001°51'0 0.4
2017-Jul-21 07:30N 50°58' E 001°51'0 0.0
2017-Jul-21 07:00N 50°58' E 001°51'714.7
2017-Jul-21 06:30N 50°58' E 001°39'917.4
2017-Jul-21 06:00N 51°03' E 001°28'6 9.4
2017-Jul-21 05:20N 51°07' E 001°20'0 0.0
2017-Jul-21 04:51N 51°07' E 001°20'0 0.0
2017-Jul-21 04:28N 51°07' E 001°20'0 0.8
2017-Jul-21 04:00N 51°07' E 001°21'714.5
2017-Jul-21 03:31N 51°04' E 001°31'816.8
2017-Jul-21 03:01N 50°60' E 001°42'611.6
2017-Jul-21 02:30N 50°58' E 001°51'0 0.0
2017-Jul-21 02:00N 50°58' E 001°51'0 0.8
2017-Jul-21 01:30N 50°58' E 001°50'816.5
2017-Jul-21 01:01N 50°59' E 001°38'1017.5
2017-Jul-21 00:28N 51°05' E 001°25'4 5.5
2017-Jul-20 23:40N 51°07' E 001°20'0 0.2
2017-Jul-20 23:28N 51°07' E 001°20'613.1
2017-Jul-20 23:01N 51°05' E 001°29'917.5
2017-Jul-20 22:31N 51°00' E 001°41'713.5
2017-Jul-20 22:01N 50°58' E 001°51'0 0.3
2017-Jul-20 21:28N 50°58' E 001°51'1 3.0
2017-Jul-20 21:00N 50°58' E 001°49'1118.5
2017-Jul-20 20:26N 51°02' E 001°33'818.5
2017-Jul-20 20:00N 51°06' E 001°23'2 4.1
2017-Jul-20 19:30N 51°07' E 001°20'0 0.1
2017-Jul-20 19:00N 51°07' E 001°20'612.2
2017-Jul-20 18:31N 51°05' E 001°29'917.4
2017-Jul-20 18:01N 51°00' E 001°40'714.2
2017-Jul-20 17:30N 50°58' E 001°51'0 0.1
2017-Jul-20 17:00N 50°58' E 001°51'0 0.3
2017-Jul-20 16:29N 50°58' E 001°51'715.2
2017-Jul-20 16:00N 50°59' E 001°39'917.5
2017-Jul-20 15:31N 51°04' E 001°28'611.1
2017-Jul-20 14:56N 51°07' E 001°20'1 1.3
2017-Jul-20 14:00N 51°07' E 001°22'917.8
2017-Jul-20 13:30N 51°03' E 001°35'917.7
2017-Jul-20 13:01N 50°58' E 001°46'3 6.4
2017-Jul-20 12:30N 50°58' E 001°51'0 0.0
2017-Jul-20 11:59N 50°58' E 001°51'3 6.6
2017-Jul-20 11:30N 50°58' E 001°46'918.1
2017-Jul-20 11:01N 51°03' E 001°34'918.6
2017-Jul-20 10:30N 51°07' E 001°21'1 0.6
2017-Jul-20 09:35N 51°07' E 001°20'0 0.9
2017-Jul-20 09:30N 51°07' E 001°20'714.4
2017-Jul-20 09:01N 51°05' E 001°31'918.1
2017-Jul-20 08:30N 50°60' E 001°42'6 8.8
2017-Jul-20 07:51N 50°58' E 001°51'0 0.1
2017-Jul-20 06:59N 50°58' E 001°51'918.2
2017-Jul-20 06:30N 50°58' E 001°37'714.0
2017-Jul-20 06:00N 51°02' E 001°28'713.0
2017-Jul-20 05:26N 51°07' E 001°20'0 0.0
2017-Jul-20 04:50N 51°07' E 001°20'0 0.0
2017-Jul-20 04:26N 51°07' E 001°20'3 6.4
2017-Jul-20 04:00N 51°07' E 001°24'1019.1
2017-Jul-20 03:30N 51°01' E 001°37'917.9
2017-Jul-20 03:00N 50°58' E 001°50'1 1.3
2017-Jul-20 02:30N 50°58' E 001°51'0 0.0
2017-Jul-20 02:00N 50°58' E 001°51'0 0.0
2017-Jul-20 01:30N 50°58' E 001°51'1 1.0
2017-Jul-20 00:59N 50°58' E 001°51'816.1
2017-Jul-20 00:30N 50°59' E 001°38'1019.3
2017-Jul-20 00:00N 51°04' E 001°26'5 6.7
2017-Jul-19 23:19N 51°07' E 001°20'0 0.3
2017-Jul-19 23:00N 51°07' E 001°20'815.9
2017-Jul-19 22:31N 51°04' E 001°31'918.2
2017-Jul-19 22:01N 50°59' E 001°43'5 9.7
2017-Jul-19 21:30N 50°58' E 001°51'0 0.0
2017-Jul-19 21:00N 50°58' E 001°51'4 7.4
2017-Jul-19 20:30N 50°58' E 001°45'918.9
2017-Jul-19 20:00N 51°02' E 001°32'917.9
2017-Jul-19 19:30N 51°07' E 001°20'0 0.4
2017-Jul-19 19:00N 51°07' E 001°20'0 0.8
2017-Jul-19 18:30N 51°07' E 001°21'917.2
2017-Jul-19 18:01N 51°04' E 001°33'918.0
2017-Jul-19 17:31N 50°58' E 001°45'4 8.0
2017-Jul-19 17:00N 50°58' E 001°51'0 0.0
2017-Jul-19 16:30N 50°58' E 001°51'5 9.3
2017-Jul-19 16:00N 50°58' E 001°44'917.9
2017-Jul-19 15:30N 51°02' E 001°31'817.0
2017-Jul-19 15:00N 51°07' E 001°20'0 0.1
2017-Jul-19 14:28N 51°07' E 001°20'0 0.0
2017-Jul-19 13:59N 51°07' E 001°20'510.5
2017-Jul-19 13:31N 51°07' E 001°28'816.8
2017-Jul-19 13:01N 51°01' E 001°38'917.0
2017-Jul-19 12:30N 50°58' E 001°51'0 0.6
2017-Jul-19 12:00N 50°58' E 001°51'0 0.1
2017-Jul-19 11:30N 50°58' E 001°51'814.2
2017-Jul-19 10:58N 51°00' E 001°39'818.3
2017-Jul-19 10:30N 51°04' E 001°27'610.1
2017-Jul-19 09:57N 51°07' E 001°20'0 0.0
2017-Jul-19 09:16N 51°07' E 001°20'1 2.7
2017-Jul-19 09:00N 51°07' E 001°21'917.9
2017-Jul-19 08:30N 51°03' E 001°34'918.3
2017-Jul-19 08:00N 50°58' E 001°46'3 6.3
2017-Jul-19 07:30N 50°58' E 001°51'0 0.0
2017-Jul-19 06:56N 50°58' E 001°51'613.0
2017-Jul-19 06:30N 50°58' E 001°42'918.7
2017-Jul-19 06:01N 51°03' E 001°29'714.1
2017-Jul-19 05:30N 51°07' E 001°20'0 0.0
2017-Jul-19 04:11N 51°07' E 001°20'1 3.8
2017-Jul-19 04:00N 51°07' E 001°21'816.0
2017-Jul-19 03:31N 51°05' E 001°33'816.5
2017-Jul-19 03:00N 50°59' E 001°43'510.6
2017-Jul-19 02:30N 50°58' E 001°51'0 0.0
2017-Jul-19 02:00N 50°58' E 001°51'0 0.0
2017-Jul-19 01:30N 50°58' E 001°51'4 8.6
2017-Jul-19 01:00N 50°58' E 001°44'715.0
2017-Jul-19 00:30N 50°59' E 001°33'917.2
2017-Jul-19 00:00N 51°06' E 001°23'3 5.4
2017-Jul-18 23:30N 51°07' E 001°20'0 0.2
2017-Jul-18 23:00N 51°07' E 001°20'816.1
2017-Jul-18 22:30N 51°04' E 001°32'918.4
2017-Jul-18 22:01N 50°59' E 001°43'5 9.6
2017-Jul-18 21:30N 50°58' E 001°51'0 0.0
2017-Jul-18 21:00N 50°58' E 001°51'3 5.3
2017-Jul-18 20:30N 50°58' E 001°47'917.4
2017-Jul-18 20:00N 50°59' E 001°33'918.2
2017-Jul-18 19:30N 51°06' E 001°23'2 3.2
2017-Jul-18 18:46N 51°07' E 001°20'0 0.2
2017-Jul-18 18:29N 51°07' E 001°20'612.7
2017-Jul-18 18:01N 51°05' E 001°29'918.0
2017-Jul-18 17:30N 50°60' E 001°41'713.2
2017-Jul-18 17:00N 50°58' E 001°51'0 0.1
2017-Jul-18 16:30N 50°58' E 001°51'0 1.0
2017-Jul-18 16:00N 50°58' E 001°50'816.2
2017-Jul-18 15:30N 51°00' E 001°38'917.5
2017-Jul-18 15:00N 51°05' E 001°26'5 4.6
2017-Jul-18 14:00N 51°07' E 001°20'4 8.7
2017-Jul-18 13:30N 51°06' E 001°27'918.5
2017-Jul-18 13:01N 51°01' E 001°38'816.5
2017-Jul-18 12:30N 50°58' E 001°51'0 0.2
2017-Jul-18 12:00N 50°58' E 001°51'0 0.9
2017-Jul-18 11:31N 50°58' E 001°50'815.0
2017-Jul-18 11:00N 50°59' E 001°39'917.9
2017-Jul-18 10:30N 51°04' E 001°27'611.0
2017-Jul-18 10:00N 51°07' E 001°20'0 0.0
2017-Jul-18 09:30N 51°07' E 001°20'0 0.7
2017-Jul-18 09:00N 51°07' E 001°21'917.6
2017-Jul-18 08:30N 51°03' E 001°33'918.3
2017-Jul-18 08:01N 50°58' E 001°45'4 6.5
2017-Jul-18 07:26N 50°58' E 001°51'0 0.0
2017-Jul-18 07:00N 50°58' E 001°51'510.8
2017-Jul-18 06:30N 50°58' E 001°42'1019.1
2017-Jul-18 06:00N 51°03' E 001°29'714.3
2017-Jul-18 05:30N 51°07' E 001°20'0 0.0
2017-Jul-18 05:00N 51°07' E 001°20'0 0.0
2017-Jul-18 04:30N 51°07' E 001°20'2 3.5
2017-Jul-18 04:01N 51°07' E 001°23'918.3
2017-Jul-18 03:31N 51°02' E 001°35'918.2
2017-Jul-18 03:01N 50°58' E 001°48'2 3.6
2017-Jul-18 02:30N 50°58' E 001°51'0 0.0
2017-Jul-18 02:00N 50°58' E 001°51'0 0.8
2017-Jul-18 01:30N 50°58' E 001°51'816.5
2017-Jul-18 01:00N 50°58' E 001°37'918.6
2017-Jul-18 00:31N 51°04' E 001°27'510.3
2017-Jul-18 00:00N 51°07' E 001°20'0 0.0
2017-Jul-17 23:31N 51°07' E 001°20'2 3.4
2017-Jul-17 23:00N 51°07' E 001°23'1019.0
2017-Jul-17 22:30N 51°02' E 001°36'918.4
2017-Jul-17 22:00N 50°58' E 001°49'1 2.6
2017-Jul-17 21:30N 50°58' E 001°51'0 0.0
2017-Jul-17 21:00N 50°58' E 001°51'510.8
2017-Jul-17 20:30N 50°58' E 001°43'918.2
2017-Jul-17 20:00N 51°03' E 001°30'815.6
2017-Jul-17 19:30N 51°07' E 001°20'0 0.0
2017-Jul-17 19:00N 51°07' E 001°20'0 0.2
2017-Jul-17 18:30N 51°07' E 001°20'816.4
2017-Jul-17 18:00N 51°06' E 001°33'918.7
2017-Jul-17 17:30N 50°59' E 001°43'510.4
2017-Jul-17 17:00N 50°58' E 001°51'0 0.0
2017-Jul-17 16:30N 50°58' E 001°51'2 4.8
2017-Jul-17 16:00N 50°58' E 001°47'918.9
2017-Jul-17 15:30N 50°60' E 001°33'1019.0
2017-Jul-17 15:00N 51°06' E 001°21'2 3.0
2017-Jul-17 14:31N 51°07' E 001°20'0 0.0
2017-Jul-17 14:00N 51°07' E 001°20'713.2
2017-Jul-17 13:30N 51°05' E 001°30'1019.5
2017-Jul-17 13:00N 50°59' E 001°42'611.0
2017-Jul-17 12:30N 50°58' E 001°51'0 0.0
2017-Jul-17 11:54N 50°58' E 001°51'2 4.9
2017-Jul-17 11:30N 50°58' E 001°48'816.8
2017-Jul-17 11:00N 51°00' E 001°35'918.6
2017-Jul-17 10:30N 51°06' E 001°23'3 4.9
2017-Jul-17 09:59N 51°07' E 001°20'0 0.2
2017-Jul-17 09:24N 51°07' E 001°20'616.2
2017-Jul-17 09:00N 51°05' E 001°29'1019.1
2017-Jul-17 08:31N 50°60' E 001°42'611.2
2017-Jul-17 07:59N 50°58' E 001°51'0 0.0
2017-Jul-17 07:30N 50°58' E 001°51'5 9.1
2017-Jul-17 07:00N 50°58' E 001°44'1019.5
2017-Jul-17 06:30N 51°02' E 001°30'8 7.1
2017-Jul-17 05:21N 51°07' E 001°20'0 0.1
2017-Jul-17 04:25N 51°07' E 001°20'511.3
2017-Jul-17 04:00N 51°06' E 001°27'917.9
2017-Jul-17 03:30N 51°00' E 001°39'510.8
2017-Jul-17 03:01N 50°58' E 001°46'3 5.6
2017-Jul-17 02:28N 50°58' E 001°51'0 0.0
2017-Jul-17 01:57N 50°58' E 001°51'0 0.6
2017-Jul-17 01:30N 50°58' E 001°51'816.1
2017-Jul-17 01:00N 50°58' E 001°38'918.1
2017-Jul-17 00:30N 51°04' E 001°27'6 9.8
2017-Jul-16 23:55N 51°07' E 001°20'0 0.0
2017-Jul-16 23:30N 51°07' E 001°20'1 2.1
2017-Jul-16 23:01N 51°07' E 001°22'918.1
2017-Jul-16 22:31N 51°03' E 001°34'918.4
2017-Jul-16 22:01N 50°58' E 001°47'3 4.6
2017-Jul-16 21:27N 50°58' E 001°51'0 0.0
2017-Jul-16 21:00N 50°58' E 001°51'611.8
2017-Jul-16 20:31N 50°58' E 001°42'918.8
2017-Jul-16 20:00N 51°03' E 001°29'713.1
2017-Jul-16 19:28N 51°07' E 001°20'0 0.0
2017-Jul-16 18:59N 51°07' E 001°20'0 0.0
2017-Jul-16 18:28N 51°07' E 001°20'4 8.4
2017-Jul-16 18:01N 51°07' E 001°26'917.0
2017-Jul-16 17:31N 51°03' E 001°38'816.5
2017-Jul-16 17:00N 50°58' E 001°49'1 2.3
2017-Jul-16 16:28N 50°58' E 001°51'0 0.0
2017-Jul-16 16:00N 50°58' E 001°51'815.6
2017-Jul-16 15:30N 50°59' E 001°39'1019.1
2017-Jul-16 15:00N 51°05' E 001°26'5 4.4
2017-Jul-16 13:56N 51°07' E 001°20'4 9.8
2017-Jul-16 13:30N 51°06' E 001°27'918.5
2017-Jul-16 13:00N 51°00' E 001°37'917.6
2017-Jul-16 12:30N 50°58' E 001°51'0 0.8
2017-Jul-16 12:00N 50°58' E 001°52'0 0.0
2017-Jul-16 11:30N 50°58' E 001°52'713.1
2017-Jul-16 11:00N 50°58' E 001°41'1018.6
2017-Jul-16 10:28N 51°04' E 001°28'6 7.8
2017-Jul-16 09:40N 51°07' E 001°20'1 3.0
2017-Jul-16 09:15N 51°07' E 001°22'418.3
2017-Jul-16 09:00N 51°05' E 001°28'918.9
2017-Jul-16 08:30N 51°00' E 001°41'713.4
2017-Jul-16 08:00N 50°58' E 001°51'0 0.0
2017-Jul-16 07:31N 50°58' E 001°51'2 4.0
2017-Jul-16 07:00N 50°58' E 001°48'918.5
2017-Jul-16 06:30N 51°01' E 001°34'1019.4
2017-Jul-16 06:00N 51°06' E 001°21'1 1.6
2017-Jul-16 05:09N 51°07' E 001°20'0 0.0
2017-Jul-16 04:53N 51°07' E 001°20'0 0.0
2017-Jul-16 04:23N 51°07' E 001°20'3 7.7
2017-Jul-16 04:01N 51°07' E 001°25'917.3
2017-Jul-16 03:30N 51°02' E 001°36'816.2
2017-Jul-16 03:00N 50°58' E 001°47'2 4.9
2017-Jul-16 02:30N 50°58' E 001°51'0 0.0
2017-Jul-16 02:00N 50°58' E 001°51'0 0.0
2017-Jul-16 01:30N 50°58' E 001°51'2 3.7
2017-Jul-16 01:01N 50°58' E 001°48'714.8
2017-Jul-16 00:30N 50°59' E 001°37'1019.1
2017-Jul-16 00:00N 51°05' E 001°25'4 7.5
2017-Jul-15 23:30N 51°07' E 001°20'0 0.3
2017-Jul-15 22:59N 51°07' E 001°20'714.1
2017-Jul-15 22:30N 51°04' E 001°30'1019.5
2017-Jul-15 22:01N 50°59' E 001°43'510.8
2017-Jul-15 21:30N 50°58' E 001°51'0 0.0
2017-Jul-15 21:00N 50°58' E 001°51'4 7.4
2017-Jul-15 20:31N 50°58' E 001°45'918.2
2017-Jul-15 20:00N 51°02' E 001°32'917.9
2017-Jul-15 19:29N 51°07' E 001°20'0 0.3
2017-Jul-15 18:38N 51°07' E 001°20'0 1.0
2017-Jul-15 18:30N 51°07' E 001°20'713.6
2017-Jul-15 18:00N 51°06' E 001°30'918.0
2017-Jul-15 17:31N 51°00' E 001°41'7 9.3
2017-Jul-15 16:48N 50°58' E 001°51'0 0.0
2017-Jul-15 16:23N 50°58' E 001°51'1 2.0
2017-Jul-15 15:57N 50°58' E 001°50'919.7
2017-Jul-15 15:30N 50°59' E 001°36'918.8
2017-Jul-15 15:00N 51°05' E 001°25'4 3.3
2017-Jul-15 13:58N 51°07' E 001°20'612.6
2017-Jul-15 13:31N 51°06' E 001°29'919.0
2017-Jul-15 13:01N 51°00' E 001°41'712.7
2017-Jul-15 12:29N 50°58' E 001°51'0 0.0
2017-Jul-15 12:00N 50°58' E 001°51'3 5.5
2017-Jul-15 11:31N 50°58' E 001°47'816.9
2017-Jul-15 11:00N 50°59' E 001°33'1019.2
2017-Jul-15 10:30N 51°06' E 001°22'2 3.0
2017-Jul-15 09:49N 51°07' E 001°20'0 0.0
2017-Jul-15 09:28N 51°07' E 001°20'511.6
2017-Jul-15 09:00N 51°07' E 001°28'815.2
2017-Jul-15 08:30N 51°02' E 001°38'917.4
2017-Jul-15 08:00N 50°58' E 001°50'1 1.0
2017-Jul-15 07:30N 50°58' E 001°51'0 0.6
2017-Jul-15 06:53N 50°58' E 001°51'615.0
2017-Jul-15 06:30N 50°58' E 001°42'918.5
2017-Jul-15 06:00N 51°03' E 001°29'7 5.1
2017-Jul-15 04:37N 51°07' E 001°20'0 0.0
2017-Jul-15 04:19N 51°07' E 001°20'2 6.0
2017-Jul-15 04:01N 51°07' E 001°23'817.0
2017-Jul-15 03:31N 51°04' E 001°35'917.5
2017-Jul-15 03:01N 50°58' E 001°46'3 6.6
2017-Jul-15 02:29N 50°58' E 001°51'0 0.0
2017-Jul-15 01:59N 50°58' E 001°51'2 4.5
2017-Jul-15 01:30N 50°58' E 001°48'816.5
2017-Jul-15 01:00N 50°60' E 001°35'918.9
2017-Jul-15 00:30N 51°06' E 001°23'2 4.3
2017-Jul-14 23:57N 51°07' E 001°20'0 0.0
2017-Jul-14 23:28N 51°07' E 001°20'3 7.2
2017-Jul-14 23:01N 51°07' E 001°25'713.7
2017-Jul-14 22:30N 51°04' E 001°35'612.7
2017-Jul-14 22:01N 50°59' E 001°42'611.7
2017-Jul-14 21:31N 50°58' E 001°51'0 0.0
2017-Jul-14 21:00N 50°58' E 001°51'2 3.8
2017-Jul-14 20:30N 50°58' E 001°48'816.3
2017-Jul-14 20:00N 50°59' E 001°35'917.9
2017-Jul-14 19:30N 51°06' E 001°25'3 3.3
2017-Jul-14 18:27N 51°07' E 001°20'3 7.6
2017-Jul-14 18:00N 51°06' E 001°25'918.6
2017-Jul-14 17:30N 51°01' E 001°38'917.0
2017-Jul-14 17:00N 50°58' E 001°50'0 1.0
2017-Jul-14 16:30N 50°58' E 001°51'1 2.4
2017-Jul-14 16:00N 50°58' E 001°49'1019.0
2017-Jul-14 15:30N 51°01' E 001°35'1019.8
2017-Jul-14 15:00N 51°06' E 001°21'1 1.2
2017-Jul-14 13:55N 51°07' E 001°20'512.1
2017-Jul-14 13:30N 51°06' E 001°28'1019.3
2017-Jul-14 13:01N 51°00' E 001°40'713.6
2017-Jul-14 12:29N 50°58' E 001°51'0 0.0
2017-Jul-14 12:00N 50°58' E 001°51'0 0.2
2017-Jul-14 11:30N 50°58' E 001°51'816.1
2017-Jul-14 11:00N 50°58' E 001°38'1018.9
2017-Jul-14 10:30N 51°04' E 001°27'5 9.9
2017-Jul-14 09:59N 51°07' E 001°20'0 0.0
2017-Jul-14 09:28N 51°07' E 001°20'2 5.3
2017-Jul-14 09:00N 51°07' E 001°24'918.4
2017-Jul-14 08:30N 51°02' E 001°36'918.5
2017-Jul-14 08:00N 50°58' E 001°50'1 1.9
2017-Jul-14 07:30N 50°58' E 001°51'0 0.0
2017-Jul-14 06:56N 50°58' E 001°51'511.7
2017-Jul-14 06:30N 50°58' E 001°43'1019.4
2017-Jul-14 06:00N 51°03' E 001°30'7 4.2
2017-Jul-14 04:17N 51°07' E 001°20'310.5
2017-Jul-14 04:00N 51°06' E 001°25'816.0
2017-Jul-14 03:30N 51°02' E 001°36'715.0
2017-Jul-14 03:01N 50°58' E 001°45'4 6.8
2017-Jul-14 02:29N 50°58' E 001°51'0 0.0
2017-Jul-14 01:58N 50°58' E 001°51'0 0.0
2017-Jul-14 01:28N 50°58' E 001°51'2 3.6
2017-Jul-14 01:00N 50°58' E 001°48'918.5
2017-Jul-14 00:31N 51°01' E 001°34'918.6
2017-Jul-14 00:00N 51°06' E 001°23'2 3.0
2017-Jul-13 23:21N 51°07' E 001°20'0 0.6
2017-Jul-13 23:00N 51°07' E 001°20'917.6
2017-Jul-13 22:31N 51°03' E 001°33'1019.2
2017-Jul-13 22:01N 50°58' E 001°45'4 7.0
2017-Jul-13 21:31N 50°58' E 001°51'0 0.0
2017-Jul-13 21:01N 50°58' E 001°51'3 6.8
2017-Jul-13 20:30N 50°58' E 001°46'816.5
2017-Jul-13 20:00N 50°59' E 001°33'714.6
2017-Jul-13 19:30N 51°05' E 001°26'4 7.4
2017-Jul-13 18:57N 51°07' E 001°20'0 0.0
2017-Jul-13 18:28N 51°07' E 001°20'4 8.7
2017-Jul-13 18:00N 51°06' E 001°26'918.8
2017-Jul-13 17:30N 51°01' E 001°39'816.2
2017-Jul-13 17:01N 50°58' E 001°51'0 0.3
2017-Jul-13 16:31N 50°58' E 001°51'0 0.9
2017-Jul-13 16:00N 50°58' E 001°50'918.3
2017-Jul-13 15:30N 51°00' E 001°36'1019.6
2017-Jul-13 15:00N 51°06' E 001°23'3 2.4
2017-Jul-13 13:57N 51°07' E 001°20'716.4
2017-Jul-13 13:30N 51°04' E 001°30'918.5
2017-Jul-13 13:00N 50°59' E 001°43'5 8.4
2017-Jul-13 12:22N 50°58' E 001°51'0 0.0
2017-Jul-13 12:01N 50°58' E 001°51'2 3.0
2017-Jul-13 11:30N 50°58' E 001°49'917.1
2017-Jul-13 11:00N 50°58' E 001°35'918.9
2017-Jul-13 10:30N 51°05' E 001°24'4 4.4
2017-Jul-13 09:39N 51°07' E 001°20'0 0.0
2017-Jul-13 09:21N 51°07' E 001°20'3 9.3
2017-Jul-13 09:01N 51°06' E 001°25'918.8
2017-Jul-13 08:30N 51°01' E 001°37'917.7
2017-Jul-13 08:00N 50°58' E 001°51'0 0.7
2017-Jul-13 07:31N 50°58' E 001°51'0 0.0
2017-Jul-13 06:58N 50°58' E 001°51'511.9
2017-Jul-13 06:30N 50°58' E 001°43'917.9
2017-Jul-13 06:00N 51°03' E 001°31'8 4.4
2017-Jul-13 04:11N 51°07' E 001°20'0 2.7
2017-Jul-13 04:01N 51°07' E 001°21'917.5
2017-Jul-13 03:31N 51°03' E 001°33'917.2
2017-Jul-13 03:01N 50°59' E 001°45'4 7.8
2017-Jul-13 02:30N 50°58' E 001°51'0 0.0
2017-Jul-13 01:59N 50°58' E 001°51'0 0.0
2017-Jul-13 01:27N 50°58' E 001°51'614.3
2017-Jul-13 01:00N 50°59' E 001°41'918.5
2017-Jul-13 00:30N 51°04' E 001°28'6 5.1
2017-Jul-12 23:14N 51°07' E 001°20'0 1.6
2017-Jul-12 23:00N 51°07' E 001°21'917.6
2017-Jul-12 22:30N 51°03' E 001°33'918.2
2017-Jul-12 22:00N 50°58' E 001°45'4 7.5
2017-Jul-12 21:30N 50°58' E 001°51'0 0.0
2017-Jul-12 20:51N 50°58' E 001°51'3 9.0
2017-Jul-12 20:30N 50°58' E 001°46'815.7
2017-Jul-12 20:01N 51°00' E 001°34'917.8
2017-Jul-12 19:30N 51°06' E 001°24'  
Track history (hours):
 
Tides and Currents Weather Stations Pressure Air Temp Water Temp Dewpoint Dewpoint Depression Visibility Wind Speed Wind Dir Waves Ship Positions

Pride Of Canterbury

Operator: P & O Ferries

Last reported at 2017-Jul-22 18:30 UTC. Time now 2017-Jul-22 18:32 UTC.
Position N 51°04' E 001°31'.

Length 180 m; draft 5.7 m.

Type: Passenger vessel. MMSI: 232001060.

Date/timePositionNaut miles runAvg speedWind from/ knotsBaromVisibWave heightAir tempDewpointWater temp
2017-Jul-22 18:30N 51°04' E 001°31'918.9
2017-Jul-22 18:00N 50°58' E 001°43'5 9.5
2017-Jul-22 17:30N 50°58' E 001°51'0 0.0
2017-Jul-22 17:00N 50°58' E 001°51'2 4.1
2017-Jul-22 16:30N 50°58' E 001°48'816.6
2017-Jul-22 16:00N 51°01' E 001°35'918.5
2017-Jul-22 15:31N 51°06' E 001°23'2 4.2
2017-Jul-22 14:57N 51°07' E 001°20'5 5.4
2017-Jul-22 14:00N 51°06' E 001°28'918.3
2017-Jul-22 13:30N 51°01' E 001°40'715.0
2017-Jul-22 13:01N 50°58' E 001°51'0 0.1
2017-Jul-22 12:29N 50°58' E 001°51'1 1.5
2017-Jul-22 12:00N 50°58' E 001°50'1018.9
2017-Jul-22 11:30N 51°01' E 001°36'918.8
2017-Jul-22 11:00N 51°06' E 001°23'2 1.8
2017-Jul-22 09:48N 51°07' E 001°20'310.7
2017-Jul-22 09:31N 51°07' E 001°25'714.1
2017-Jul-22 09:01N 51°05' E 001°36'714.5
2017-Jul-22 08:30N 50°59' E 001°43'5 9.2
2017-Jul-22 07:57N 50°58' E 001°51'0 0.0
2017-Jul-22 07:31N 50°58' E 001°51'3 5.1
2017-Jul-22 07:00N 50°58' E 001°47'917.3
2017-Jul-22 06:30N 51°01' E 001°34'918.1
2017-Jul-22 06:00N 51°06' E 001°22'2 0.9
2017-Jul-22 04:12N 51°07' E 001°20'210.4
2017-Jul-22 04:00N 51°07' E 001°23'917.1
2017-Jul-22 03:30N 51°03' E 001°35'816.7
2017-Jul-22 03:00N 50°58' E 001°46'3 6.2
2017-Jul-22 02:30N 50°58' E 001°51'0 0.0
2017-Jul-22 02:01N 50°58' E 001°51'0 0.0
2017-Jul-22 01:30N 50°58' E 001°51'510.1
2017-Jul-22 01:00N 50°58' E 001°43'918.3
2017-Jul-22 00:30N 51°03' E 001°31'816.2
2017-Jul-22 00:00N 51°07' E 001°20'0 0.3
2017-Jul-21 23:27N 51°07' E 001°20'0 0.3
2017-Jul-21 23:00N 51°07' E 001°20'815.6
2017-Jul-21 22:31N 51°04' E 001°31'917.3
2017-Jul-21 22:00N 50°59' E 001°43'510.6
2017-Jul-21 21:30N 50°58' E 001°51'0 0.0
2017-Jul-21 21:01N 50°58' E 001°51'2 4.7
2017-Jul-21 20:30N 50°58' E 001°47'1019.1
2017-Jul-21 20:00N 51°01' E 001°33'918.0
2017-Jul-21 19:30N 51°07' E 001°22'1 2.9
2017-Jul-21 19:00N 51°07' E 001°20'0 0.0
2017-Jul-21 18:29N 51°07' E 001°20'713.7
2017-Jul-21 18:00N 51°05' E 001°30'1019.2
2017-Jul-21 17:30N 50°59' E 001°42'611.6
2017-Jul-21 17:00N 50°58' E 001°51'0 0.0
2017-Jul-21 16:30N 50°58' E 001°51'2 3.5
2017-Jul-21 16:00N 50°58' E 001°48'816.4
2017-Jul-21 15:30N 51°01' E 001°36'918.4
2017-Jul-21 15:00N 51°06' E 001°24'3 5.3
2017-Jul-21 14:30N 51°07' E 001°20'0 0.0
2017-Jul-21 13:59N 51°07' E 001°20'613.0
2017-Jul-21 13:31N 51°05' E 001°29'918.5
2017-Jul-21 13:00N 50°60' E 001°41'612.7
2017-Jul-21 12:30N 50°58' E 001°51'0 0.0
2017-Jul-21 12:00N 50°58' E 001°51'1 2.3
2017-Jul-21 11:30N 50°58' E 001°49'918.0
2017-Jul-21 10:59N 51°01' E 001°35'918.6
2017-Jul-21 10:31N 51°06' E 001°23'2 2.0
2017-Jul-21 09:22N 51°07' E 001°20'513.9
2017-Jul-21 09:00N 51°06' E 001°27'918.2
2017-Jul-21 08:30N 51°01' E 001°40'714.8
2017-Jul-21 08:00N 50°58' E 001°51'0 0.4
2017-Jul-21 07:30N 50°58' E 001°51'0 0.0
2017-Jul-21 07:00N 50°58' E 001°51'714.7
2017-Jul-21 06:30N 50°58' E 001°39'917.4
2017-Jul-21 06:00N 51°03' E 001°28'6 9.4
2017-Jul-21 05:20N 51°07' E 001°20'0 0.0
2017-Jul-21 04:51N 51°07' E 001°20'0 0.0
2017-Jul-21 04:28N 51°07' E 001°20'0 0.8
2017-Jul-21 04:00N 51°07' E 001°21'714.5
2017-Jul-21 03:31N 51°04' E 001°31'816.8
2017-Jul-21 03:01N 50°60' E 001°42'611.6
2017-Jul-21 02:30N 50°58' E 001°51'0 0.0
2017-Jul-21 02:00N 50°58' E 001°51'0 0.8
2017-Jul-21 01:30N 50°58' E 001°50'816.5
2017-Jul-21 01:01N 50°59' E 001°38'1017.5
2017-Jul-21 00:28N 51°05' E 001°25'4 5.5
2017-Jul-20 23:40N 51°07' E 001°20'0 0.2
2017-Jul-20 23:28N 51°07' E 001°20'613.1
2017-Jul-20 23:01N 51°05' E 001°29'917.5
2017-Jul-20 22:31N 51°00' E 001°41'713.5
2017-Jul-20 22:01N 50°58' E 001°51'0 0.3
2017-Jul-20 21:28N 50°58' E 001°51'1 3.0
2017-Jul-20 21:00N 50°58' E 001°49'1118.5
2017-Jul-20 20:26N 51°02' E 001°33'818.5
2017-Jul-20 20:00N 51°06' E 001°23'2 4.1
2017-Jul-20 19:30N 51°07' E 001°20'0 0.1
2017-Jul-20 19:00N 51°07' E 001°20'612.2
2017-Jul-20 18:31N 51°05' E 001°29'917.4
2017-Jul-20 18:01N 51°00' E 001°40'714.2
2017-Jul-20 17:30N 50°58' E 001°51'0 0.1
2017-Jul-20 17:00N 50°58' E 001°51'0 0.3
2017-Jul-20 16:29N 50°58' E 001°51'715.2
2017-Jul-20 16:00N 50°59' E 001°39'917.5
2017-Jul-20 15:31N 51°04' E 001°28'611.1
2017-Jul-20 14:56N 51°07' E 001°20'1 1.3
2017-Jul-20 14:00N 51°07' E 001°22'917.8
2017-Jul-20 13:30N 51°03' E 001°35'917.7
2017-Jul-20 13:01N 50°58' E 001°46'3 6.4
2017-Jul-20 12:30N 50°58' E 001°51'0 0.0
2017-Jul-20 11:59N 50°58' E 001°51'3 6.6
2017-Jul-20 11:30N 50°58' E 001°46'918.1
2017-Jul-20 11:01N 51°03' E 001°34'918.6
2017-Jul-20 10:30N 51°07' E 001°21'1 0.6
2017-Jul-20 09:35N 51°07' E 001°20'0 0.9
2017-Jul-20 09:30N 51°07' E 001°20'714.4
2017-Jul-20 09:01N 51°05' E 001°31'918.1
2017-Jul-20 08:30N 50°60' E 001°42'6 8.8
2017-Jul-20 07:51N 50°58' E 001°51'0 0.1
2017-Jul-20 06:59N 50°58' E 001°51'918.2
2017-Jul-20 06:30N 50°58' E 001°37'714.0
2017-Jul-20 06:00N 51°02' E 001°28'713.0
2017-Jul-20 05:26N 51°07' E 001°20'0 0.0
2017-Jul-20 04:50N 51°07' E 001°20'0 0.0
2017-Jul-20 04:26N 51°07' E 001°20'3 6.4
2017-Jul-20 04:00N 51°07' E 001°24'1019.1
2017-Jul-20 03:30N 51°01' E 001°37'917.9
2017-Jul-20 03:00N 50°58' E 001°50'1 1.3
2017-Jul-20 02:30N 50°58' E 001°51'0 0.0
2017-Jul-20 02:00N 50°58' E 001°51'0 0.0
2017-Jul-20 01:30N 50°58' E 001°51'1 1.0
2017-Jul-20 00:59N 50°58' E 001°51'816.1
2017-Jul-20 00:30N 50°59' E 001°38'1019.3
2017-Jul-20 00:00N 51°04' E 001°26'5 6.7
2017-Jul-19 23:19N 51°07' E 001°20'0 0.3
2017-Jul-19 23:00N 51°07' E 001°20'815.9
2017-Jul-19 22:31N 51°04' E 001°31'918.2
2017-Jul-19 22:01N 50°59' E 001°43'5 9.7
2017-Jul-19 21:30N 50°58' E 001°51'0 0.0
2017-Jul-19 21:00N 50°58' E 001°51'4 7.4
2017-Jul-19 20:30N 50°58' E 001°45'918.9
2017-Jul-19 20:00N 51°02' E 001°32'917.9
2017-Jul-19 19:30N 51°07' E 001°20'0 0.4
2017-Jul-19 19:00N 51°07' E 001°20'0 0.8
2017-Jul-19 18:30N 51°07' E 001°21'917.2
2017-Jul-19 18:01N 51°04' E 001°33'918.0
2017-Jul-19 17:31N 50°58' E 001°45'4 8.0
2017-Jul-19 17:00N 50°58' E 001°51'0 0.0
2017-Jul-19 16:30N 50°58' E 001°51'5 9.3
2017-Jul-19 16:00N 50°58' E 001°44'917.9
2017-Jul-19 15:30N 51°02' E 001°31'817.0
2017-Jul-19 15:00N 51°07' E 001°20'0 0.1
2017-Jul-19 14:28N 51°07' E 001°20'0 0.0
2017-Jul-19 13:59N 51°07' E 001°20'510.5
2017-Jul-19 13:31N 51°07' E 001°28'816.8
2017-Jul-19 13:01N 51°01' E 001°38'917.0
2017-Jul-19 12:30N 50°58' E 001°51'0 0.6
2017-Jul-19 12:00N 50°58' E 001°51'0 0.1
2017-Jul-19 11:30N 50°58' E 001°51'814.2
2017-Jul-19 10:58N 51°00' E 001°39'818.3
2017-Jul-19 10:30N 51°04' E 001°27'610.1
2017-Jul-19 09:57N 51°07' E 001°20'0 0.0
2017-Jul-19 09:16N 51°07' E 001°20'1 2.7
2017-Jul-19 09:00N 51°07' E 001°21'917.9
2017-Jul-19 08:30N 51°03' E 001°34'918.3
2017-Jul-19 08:00N 50°58' E 001°46'3 6.3
2017-Jul-19 07:30N 50°58' E 001°51'0 0.0
2017-Jul-19 06:56N 50°58' E 001°51'613.0
2017-Jul-19 06:30N 50°58' E 001°42'918.7
2017-Jul-19 06:01N 51°03' E 001°29'714.1
2017-Jul-19 05:30N 51°07' E 001°20'0 0.0
2017-Jul-19 04:11N 51°07' E 001°20'1 3.8
2017-Jul-19 04:00N 51°07' E 001°21'816.0
2017-Jul-19 03:31N 51°05' E 001°33'816.5
2017-Jul-19 03:00N 50°59' E 001°43'510.6
2017-Jul-19 02:30N 50°58' E 001°51'0 0.0
2017-Jul-19 02:00N 50°58' E 001°51'0 0.0
2017-Jul-19 01:30N 50°58' E 001°51'4 8.6
2017-Jul-19 01:00N 50°58' E 001°44'715.0
2017-Jul-19 00:30N 50°59' E 001°33'917.2
2017-Jul-19 00:00N 51°06' E 001°23'3 5.4
2017-Jul-18 23:30N 51°07' E 001°20'0 0.2
2017-Jul-18 23:00N 51°07' E 001°20'816.1
2017-Jul-18 22:30N 51°04' E 001°32'918.4
2017-Jul-18 22:01N 50°59' E 001°43'5 9.6
2017-Jul-18 21:30N 50°58' E 001°51'0 0.0
2017-Jul-18 21:00N 50°58' E 001°51'3 5.3
2017-Jul-18 20:30N 50°58' E 001°47'917.4
2017-Jul-18 20:00N 50°59' E 001°33'918.2
2017-Jul-18 19:30N 51°06' E 001°23'2 3.2
2017-Jul-18 18:46N 51°07' E 001°20'0 0.2
2017-Jul-18 18:29N 51°07' E 001°20'612.7
2017-Jul-18 18:01N 51°05' E 001°29'918.0
2017-Jul-18 17:30N 50°60' E 001°41'713.2
2017-Jul-18 17:00N 50°58' E 001°51'0 0.1
2017-Jul-18 16:30N 50°58' E 001°51'0 1.0
2017-Jul-18 16:00N 50°58' E 001°50'816.2
2017-Jul-18 15:30N 51°00' E 001°38'917.5
2017-Jul-18 15:00N 51°05' E 001°26'5 4.6
2017-Jul-18 14:00N 51°07' E 001°20'4 8.7
2017-Jul-18 13:30N 51°06' E 001°27'918.5
2017-Jul-18 13:01N 51°01' E 001°38'816.5
2017-Jul-18 12:30N 50°58' E 001°51'0 0.2
2017-Jul-18 12:00N 50°58' E 001°51'0 0.9
2017-Jul-18 11:31N 50°58' E 001°50'815.0
2017-Jul-18 11:00N 50°59' E 001°39'917.9
2017-Jul-18 10:30N 51°04' E 001°27'611.0
2017-Jul-18 10:00N 51°07' E 001°20'0 0.0
2017-Jul-18 09:30N 51°07' E 001°20'0 0.7
2017-Jul-18 09:00N 51°07' E 001°21'917.6
2017-Jul-18 08:30N 51°03' E 001°33'918.3
2017-Jul-18 08:01N 50°58' E 001°45'4 6.5
2017-Jul-18 07:26N 50°58' E 001°51'0 0.0
2017-Jul-18 07:00N 50°58' E 001°51'510.8
2017-Jul-18 06:30N 50°58' E 001°42'1019.1
2017-Jul-18 06:00N 51°03' E 001°29'714.3
2017-Jul-18 05:30N 51°07' E 001°20'0 0.0
2017-Jul-18 05:00N 51°07' E 001°20'0 0.0
2017-Jul-18 04:30N 51°07' E 001°20'2 3.5
2017-Jul-18 04:01N 51°07' E 001°23'918.3
2017-Jul-18 03:31N 51°02' E 001°35'918.2
2017-Jul-18 03:01N 50°58' E 001°48'2 3.6
2017-Jul-18 02:30N 50°58' E 001°51'0 0.0
2017-Jul-18 02:00N 50°58' E 001°51'0 0.8
2017-Jul-18 01:30N 50°58' E 001°51'816.5
2017-Jul-18 01:00N 50°58' E 001°37'918.6
2017-Jul-18 00:31N 51°04' E 001°27'510.3
2017-Jul-18 00:00N 51°07' E 001°20'0 0.0
2017-Jul-17 23:31N 51°07' E 001°20'2 3.4
2017-Jul-17 23:00N 51°07' E 001°23'1019.0
2017-Jul-17 22:30N 51°02' E 001°36'918.4
2017-Jul-17 22:00N 50°58' E 001°49'1 2.6
2017-Jul-17 21:30N 50°58' E 001°51'0 0.0
2017-Jul-17 21:00N 50°58' E 001°51'510.8
2017-Jul-17 20:30N 50°58' E 001°43'918.2
2017-Jul-17 20:00N 51°03' E 001°30'815.6
2017-Jul-17 19:30N 51°07' E 001°20'0 0.0
2017-Jul-17 19:00N 51°07' E 001°20'0 0.2
2017-Jul-17 18:30N 51°07' E 001°20'816.4
2017-Jul-17 18:00N 51°06' E 001°33'918.7
2017-Jul-17 17:30N 50°59' E 001°43'510.4
2017-Jul-17 17:00N 50°58' E 001°51'0 0.0
2017-Jul-17 16:30N 50°58' E 001°51'2 4.8
2017-Jul-17 16:00N 50°58' E 001°47'918.9
2017-Jul-17 15:30N 50°60' E 001°33'1019.0
2017-Jul-17 15:00N 51°06' E 001°21'2 3.0
2017-Jul-17 14:31N 51°07' E 001°20'0 0.0
2017-Jul-17 14:00N 51°07' E 001°20'713.2
2017-Jul-17 13:30N 51°05' E 001°30'1019.5
2017-Jul-17 13:00N 50°59' E 001°42'611.0
2017-Jul-17 12:30N 50°58' E 001°51'0 0.0
2017-Jul-17 11:54N 50°58' E 001°51'2 4.9
2017-Jul-17 11:30N 50°58' E 001°48'816.8
2017-Jul-17 11:00N 51°00' E 001°35'918.6
2017-Jul-17 10:30N 51°06' E 001°23'3 4.9
2017-Jul-17 09:59N 51°07' E 001°20'0 0.2
2017-Jul-17 09:24N 51°07' E 001°20'616.2
2017-Jul-17 09:00N 51°05' E 001°29'1019.1
2017-Jul-17 08:31N 50°60' E 001°42'611.2
2017-Jul-17 07:59N 50°58' E 001°51'0 0.0
2017-Jul-17 07:30N 50°58' E 001°51'5 9.1
2017-Jul-17 07:00N 50°58' E 001°44'1019.5
2017-Jul-17 06:30N 51°02' E 001°30'8 7.1
2017-Jul-17 05:21N 51°07' E 001°20'0 0.1
2017-Jul-17 04:25N 51°07' E 001°20'511.3
2017-Jul-17 04:00N 51°06' E 001°27'917.9
2017-Jul-17 03:30N 51°00' E 001°39'510.8
2017-Jul-17 03:01N 50°58' E 001°46'3 5.6
2017-Jul-17 02:28N 50°58' E 001°51'0 0.0
2017-Jul-17 01:57N 50°58' E 001°51'0 0.6
2017-Jul-17 01:30N 50°58' E 001°51'816.1
2017-Jul-17 01:00N 50°58' E 001°38'918.1
2017-Jul-17 00:30N 51°04' E 001°27'6 9.8
2017-Jul-16 23:55N 51°07' E 001°20'0 0.0
2017-Jul-16 23:30N 51°07' E 001°20'1 2.1
2017-Jul-16 23:01N 51°07' E 001°22'918.1
2017-Jul-16 22:31N 51°03' E 001°34'918.4
2017-Jul-16 22:01N 50°58' E 001°47'3 4.6
2017-Jul-16 21:27N 50°58' E 001°51'0 0.0
2017-Jul-16 21:00N 50°58' E 001°51'611.8
2017-Jul-16 20:31N 50°58' E 001°42'918.8
2017-Jul-16 20:00N 51°03' E 001°29'713.1
2017-Jul-16 19:28N 51°07' E 001°20'0 0.0
2017-Jul-16 18:59N 51°07' E 001°20'0 0.0
2017-Jul-16 18:28N 51°07' E 001°20'4 8.4
2017-Jul-16 18:01N 51°07' E 001°26'917.0
2017-Jul-16 17:31N 51°03' E 001°38'816.5
2017-Jul-16 17:00N 50°58' E 001°49'1 2.3
2017-Jul-16 16:28N 50°58' E 001°51'0 0.0
2017-Jul-16 16:00N 50°58' E 001°51'815.6
2017-Jul-16 15:30N 50°59' E 001°39'1019.1
2017-Jul-16 15:00N 51°05' E 001°26'5 4.4
2017-Jul-16 13:56N 51°07' E 001°20'4 9.8
2017-Jul-16 13:30N 51°06' E 001°27'918.5
2017-Jul-16 13:00N 51°00' E 001°37'917.6
2017-Jul-16 12:30N 50°58' E 001°51'0 0.8
2017-Jul-16 12:00N 50°58' E 001°52'0 0.0
2017-Jul-16 11:30N 50°58' E 001°52'713.1
2017-Jul-16 11:00N 50°58' E 001°41'1018.6
2017-Jul-16 10:28N 51°04' E 001°28'6 7.8
2017-Jul-16 09:40N 51°07' E 001°20'1 3.0
2017-Jul-16 09:15N 51°07' E 001°22'418.3
2017-Jul-16 09:00N 51°05' E 001°28'918.9
2017-Jul-16 08:30N 51°00' E 001°41'713.4
2017-Jul-16 08:00N 50°58' E 001°51'0 0.0
2017-Jul-16 07:31N 50°58' E 001°51'2 4.0
2017-Jul-16 07:00N 50°58' E 001°48'918.5
2017-Jul-16 06:30N 51°01' E 001°34'1019.4
2017-Jul-16 06:00N 51°06' E 001°21'1 1.6
2017-Jul-16 05:09N 51°07' E 001°20'0 0.0
2017-Jul-16 04:53N 51°07' E 001°20'0 0.0
2017-Jul-16 04:23N 51°07' E 001°20'3 7.7
2017-Jul-16 04:01N 51°07' E 001°25'917.3
2017-Jul-16 03:30N 51°02' E 001°36'816.2
2017-Jul-16 03:00N 50°58' E 001°47'2 4.9
2017-Jul-16 02:30N 50°58' E 001°51'0 0.0
2017-Jul-16 02:00N 50°58' E 001°51'0 0.0
2017-Jul-16 01:30N 50°58' E 001°51'2 3.7
2017-Jul-16 01:01N 50°58' E 001°48'714.8
2017-Jul-16 00:30N 50°59' E 001°37'1019.1
2017-Jul-16 00:00N 51°05' E 001°25'4 7.5
2017-Jul-15 23:30N 51°07' E 001°20'0 0.3
2017-Jul-15 22:59N 51°07' E 001°20'714.1
2017-Jul-15 22:30N 51°04' E 001°30'1019.5
2017-Jul-15 22:01N 50°59' E 001°43'510.8
2017-Jul-15 21:30N 50°58' E 001°51'0 0.0
2017-Jul-15 21:00N 50°58' E 001°51'4 7.4
2017-Jul-15 20:31N 50°58' E 001°45'918.2
2017-Jul-15 20:00N 51°02' E 001°32'917.9
2017-Jul-15 19:29N 51°07' E 001°20'0 0.3
2017-Jul-15 18:38N 51°07' E 001°20'0 1.0
2017-Jul-15 18:30N 51°07' E 001°20'713.6
2017-Jul-15 18:00N 51°06' E 001°30'918.0
2017-Jul-15 17:31N 51°00' E 001°41'7 9.3
2017-Jul-15 16:48N 50°58' E 001°51'0 0.0
2017-Jul-15 16:23N 50°58' E 001°51'1 2.0
2017-Jul-15 15:57N 50°58' E 001°50'919.7
2017-Jul-15 15:30N 50°59' E 001°36'918.8
2017-Jul-15 15:00N 51°05' E 001°25'4 3.3
2017-Jul-15 13:58N 51°07' E 001°20'612.6
2017-Jul-15 13:31N 51°06' E 001°29'919.0
2017-Jul-15 13:01N 51°00' E 001°41'712.7
2017-Jul-15 12:29N 50°58' E 001°51'0 0.0
2017-Jul-15 12:00N 50°58' E 001°51'3 5.5
2017-Jul-15 11:31N 50°58' E 001°47'816.9
2017-Jul-15 11:00N 50°59' E 001°33'1019.2
2017-Jul-15 10:30N 51°06' E 001°22'2 3.0
2017-Jul-15 09:49N 51°07' E 001°20'0 0.0
2017-Jul-15 09:28N 51°07' E 001°20'511.6
2017-Jul-15 09:00N 51°07' E 001°28'815.2
2017-Jul-15 08:30N 51°02' E 001°38'917.4
2017-Jul-15 08:00N 50°58' E 001°50'1 1.0
2017-Jul-15 07:30N 50°58' E 001°51'0 0.6
2017-Jul-15 06:53N 50°58' E 001°51'615.0
2017-Jul-15 06:30N 50°58' E 001°42'918.5
2017-Jul-15 06:00N 51°03' E 001°29'7 5.1
2017-Jul-15 04:37N 51°07' E 001°20'0 0.0
2017-Jul-15 04:19N 51°07' E 001°20'2 6.0
2017-Jul-15 04:01N 51°07' E 001°23'817.0
2017-Jul-15 03:31N 51°04' E 001°35'917.5
2017-Jul-15 03:01N 50°58' E 001°46'3 6.6
2017-Jul-15 02:29N 50°58' E 001°51'0 0.0
2017-Jul-15 01:59N 50°58' E 001°51'2 4.5
2017-Jul-15 01:30N 50°58' E 001°48'816.5
2017-Jul-15 01:00N 50°60' E 001°35'918.9
2017-Jul-15 00:30N 51°06' E 001°23'2 4.3
2017-Jul-14 23:57N 51°07' E 001°20'0 0.0
2017-Jul-14 23:28N 51°07' E 001°20'3 7.2
2017-Jul-14 23:01N 51°07' E 001°25'713.7
2017-Jul-14 22:30N 51°04' E 001°35'612.7
2017-Jul-14 22:01N 50°59' E 001°42'611.7
2017-Jul-14 21:31N 50°58' E 001°51'0 0.0
2017-Jul-14 21:00N 50°58' E 001°51'2 3.8
2017-Jul-14 20:30N 50°58' E 001°48'816.3
2017-Jul-14 20:00N 50°59' E 001°35'917.9
2017-Jul-14 19:30N 51°06' E 001°25'3 3.3
2017-Jul-14 18:27N 51°07' E 001°20'3 7.6
2017-Jul-14 18:00N 51°06' E 001°25'918.6
2017-Jul-14 17:30N 51°01' E 001°38'917.0
2017-Jul-14 17:00N 50°58' E 001°50'0 1.0
2017-Jul-14 16:30N 50°58' E 001°51'1 2.4
2017-Jul-14 16:00N 50°58' E 001°49'1019.0
2017-Jul-14 15:30N 51°01' E 001°35'1019.8
2017-Jul-14 15:00N 51°06' E 001°21'1 1.2
2017-Jul-14 13:55N 51°07' E 001°20'512.1
2017-Jul-14 13:30N 51°06' E 001°28'1019.3
2017-Jul-14 13:01N 51°00' E 001°40'713.6
2017-Jul-14 12:29N 50°58' E 001°51'0 0.0
2017-Jul-14 12:00N 50°58' E 001°51'0 0.2
2017-Jul-14 11:30N 50°58' E 001°51'816.1
2017-Jul-14 11:00N 50°58' E 001°38'1018.9
2017-Jul-14 10:30N 51°04' E 001°27'5 9.9
2017-Jul-14 09:59N 51°07' E 001°20'0 0.0
2017-Jul-14 09:28N 51°07' E 001°20'2 5.3
2017-Jul-14 09:00N 51°07' E 001°24'918.4
2017-Jul-14 08:30N 51°02' E 001°36'918.5
2017-Jul-14 08:00N 50°58' E 001°50'1 1.9
2017-Jul-14 07:30N 50°58' E 001°51'0 0.0
2017-Jul-14 06:56N 50°58' E 001°51'511.7
2017-Jul-14 06:30N 50°58' E 001°43'1019.4
2017-Jul-14 06:00N 51°03' E 001°30'7 4.2
2017-Jul-14 04:17N 51°07' E 001°20'310.5
2017-Jul-14 04:00N 51°06' E 001°25'816.0
2017-Jul-14 03:30N 51°02' E 001°36'715.0
2017-Jul-14 03:01N 50°58' E 001°45'4 6.8
2017-Jul-14 02:29N 50°58' E 001°51'0 0.0
2017-Jul-14 01:58N 50°58' E 001°51'0 0.0
2017-Jul-14 01:28N 50°58' E 001°51'2 3.6
2017-Jul-14 01:00N 50°58' E 001°48'918.5
2017-Jul-14 00:31N 51°01' E 001°34'918.6
2017-Jul-14 00:00N 51°06' E 001°23'2 3.0
2017-Jul-13 23:21N 51°07' E 001°20'0 0.6
2017-Jul-13 23:00N 51°07' E 001°20'917.6
2017-Jul-13 22:31N 51°03' E 001°33'1019.2
2017-Jul-13 22:01N 50°58' E 001°45'4 7.0
2017-Jul-13 21:31N 50°58' E 001°51'0 0.0
2017-Jul-13 21:01N 50°58' E 001°51'3 6.8
2017-Jul-13 20:30N 50°58' E 001°46'816.5
2017-Jul-13 20:00N 50°59' E 001°33'714.6
2017-Jul-13 19:30N 51°05' E 001°26'4 7.4
2017-Jul-13 18:57N 51°07' E 001°20'0 0.0
2017-Jul-13 18:28N 51°07' E 001°20'4 8.7
2017-Jul-13 18:00N 51°06' E 001°26'918.8
2017-Jul-13 17:30N 51°01' E 001°39'816.2
2017-Jul-13 17:01N 50°58' E 001°51'0 0.3
2017-Jul-13 16:31N 50°58' E 001°51'0 0.9
2017-Jul-13 16:00N 50°58' E 001°50'918.3
2017-Jul-13 15:30N 51°00' E 001°36'1019.6
2017-Jul-13 15:00N 51°06' E 001°23'3 2.4
2017-Jul-13 13:57N 51°07' E 001°20'716.4
2017-Jul-13 13:30N 51°04' E 001°30'918.5
2017-Jul-13 13:00N 50°59' E 001°43'5 8.4
2017-Jul-13 12:22N 50°58' E 001°51'0 0.0
2017-Jul-13 12:01N 50°58' E 001°51'2 3.0
2017-Jul-13 11:30N 50°58' E 001°49'917.1
2017-Jul-13 11:00N 50°58' E 001°35'918.9
2017-Jul-13 10:30N 51°05' E 001°24'4 4.4
2017-Jul-13 09:39N 51°07' E 001°20'0 0.0
2017-Jul-13 09:21N 51°07' E 001°20'3 9.3
2017-Jul-13 09:01N 51°06' E 001°25'918.8
2017-Jul-13 08:30N 51°01' E 001°37'917.7
2017-Jul-13 08:00N 50°58' E 001°51'0 0.7
2017-Jul-13 07:31N 50°58' E 001°51'0 0.0
2017-Jul-13 06:58N 50°58' E 001°51'511.9
2017-Jul-13 06:30N 50°58' E 001°43'917.9
2017-Jul-13 06:00N 51°03' E 001°31'8 4.4
2017-Jul-13 04:11N 51°07' E 001°20'0 2.7
2017-Jul-13 04:01N 51°07' E 001°21'917.5
2017-Jul-13 03:31N 51°03' E 001°33'917.2
2017-Jul-13 03:01N 50°59' E 001°45'4 7.8
2017-Jul-13 02:30N 50°58' E 001°51'0 0.0
2017-Jul-13 01:59N 50°58' E 001°51'0 0.0
2017-Jul-13 01:27N 50°58' E 001°51'614.3
2017-Jul-13 01:00N 50°59' E 001°41'918.5
2017-Jul-13 00:30N 51°04' E 001°28'6 5.1
2017-Jul-12 23:14N 51°07' E 001°20'0 1.6
2017-Jul-12 23:00N 51°07' E 001°21'917.6
2017-Jul-12 22:30N 51°03' E 001°33'918.2
2017-Jul-12 22:00N 50°58' E 001°45'4 7.5
2017-Jul-12 21:30N 50°58' E 001°51'0 0.0
2017-Jul-12 20:51N 50°58' E 001°51'3 9.0
2017-Jul-12 20:30N 50°58' E 001°46'815.7
2017-Jul-12 20:01N 51°00' E 001°34'917.8
2017-Jul-12 19:30N 51°06' E 001°24'  

Dump ship's entire track history